Terminal Aerodrome Forecast
Issued by NWS

Home | Current Version | Previous Version | Text Only | Print | Product List | Glossary On
Versions: 1 2 3 4 5 6 7 8 9 10 11 12 13
000
FTUS46 KPDT 300523
TAFYKM
TAF
KYKM 300523Z 3006/0106 30011G16KT P6SM SKC
     FM300700 31009KT P6SM SCT080
     FM301800 35006KT P6SM FEW080 FEW250
     FM010400 28006KT P6SM SKC=

USA.gov is the U.S. government's official web portal to all federal, state and local government web resources and services.